sensor_id;sensor_type;location;lat;lon;timestamp;temperature;humidity
13203;DHT22;6666;51.626;7.530;2022-09-09T00:00:47;16.10;99.90
13203;DHT22;6666;51.626;7.530;2022-09-09T00:03:18;16.10;99.90
13203;DHT22;6666;51.626;7.530;2022-09-09T00:05:53;16.00;99.90
13203;DHT22;6666;51.626;7.530;2022-09-09T00:08:29;16.00;99.90
13203;DHT22;6666;51.626;7.530;2022-09-09T00:11:03;15.90;99.90
13203;DHT22;6666;51.626;7.530;2022-09-09T00:13:37;15.90;99.90
13203;DHT22;6666;51.626;7.530;2022-09-09T00:16:12;15.80;99.90
13203;DHT22;6666;51.626;7.530;2022-09-09T00:18:52;15.80;99.90
13203;DHT22;6666;51.626;7.530;2022-09-09T00:21:27;15.80;99.90
13203;DHT22;6666;51.626;7.530;2022-09-09T00:24:01;15.70;99.90
13203;DHT22;6666;51.626;7.530;2022-09-09T00:26:40;15.70;99.90
13203;DHT22;6666;51.626;7.530;2022-09-09T00:29:14;15.70;99.90
13203;DHT22;6666;51.626;7.530;2022-09-09T00:31:45;15.70;99.90
13203;DHT22;6666;51.626;7.530;2022-09-09T00:34:18;15.70;99.90
13203;DHT22;6666;51.626;7.530;2022-09-09T00:36:49;15.70;99.90
13203;DHT22;6666;51.626;7.530;2022-09-09T00:39:25;15.60;99.90
13203;DHT22;6666;51.626;7.530;2022-09-09T00:42:13;15.60;99.90
13203;DHT22;6666;51.626;7.530;2022-09-09T00:44:52;15.50;99.90
13203;DHT22;6666;51.626;7.530;2022-09-09T00:47:38;15.50;99.90
13203;DHT22;6666;51.626;7.530;2022-09-09T00:50:19;15.50;99.90
13203;DHT22;6666;51.626;7.530;2022-09-09T00:52:56;15.40;99.90
13203;DHT22;6666;51.626;7.530;2022-09-09T00:55:36;15.40;99.90
13203;DHT22;6666;51.626;7.530;2022-09-09T00:58:07;15.30;99.90
13203;DHT22;6666;51.626;7.530;2022-09-09T01:00:41;15.30;99.90
13203;DHT22;6666;51.626;7.530;2022-09-09T01:03:28;15.30;99.90
13203;DHT22;6666;51.626;7.530;2022-09-09T01:06:13;15.30;99.90
13203;DHT22;6666;51.626;7.530;2022-09-09T01:09:07;15.20;99.90
13203;DHT22;6666;51.626;7.530;2022-09-09T01:11:49;15.20;99.90
13203;DHT22;6666;51.626;7.530;2022-09-09T01:14:31;15.20;99.90
13203;DHT22;6666;51.626;7.530;2022-09-09T01:17:10;15.20;99.90
13203;DHT22;6666;51.626;7.530;2022-09-09T01:19:54;15.20;99.90
13203;DHT22;6666;51.626;7.530;2022-09-09T01:22:32;15.20;99.90
13203;DHT22;6666;51.626;7.530;2022-09-09T01:25:22;15.20;99.90
13203;DHT22;6666;51.626;7.530;2022-09-09T01:28:06;15.20;99.90
13203;DHT22;6666;51.626;7.530;2022-09-09T01:30:40;15.10;99.90
13203;DHT22;6666;51.626;7.530;2022-09-09T01:33:14;15.10;99.90
13203;DHT22;6666;51.626;7.530;2022-09-09T01:35:46;15.00;99.90
13203;DHT22;6666;51.626;7.530;2022-09-09T01:38:18;15.00;99.90
13203;DHT22;6666;51.626;7.530;2022-09-09T01:40:50;15.00;99.90
13203;DHT22;6666;51.626;7.530;2022-09-09T01:43:25;15.00;99.90
13203;DHT22;6666;51.626;7.530;2022-09-09T01:45:56;15.00;99.90
13203;DHT22;6666;51.626;7.530;2022-09-09T01:48:28;15.00;99.90
13203;DHT22;6666;51.626;7.530;2022-09-09T01:51:05;15.00;99.90
13203;DHT22;6666;51.626;7.530;2022-09-09T01:53:35;14.90;99.90
13203;DHT22;6666;51.626;7.530;2022-09-09T01:56:12;14.90;99.90
13203;DHT22;6666;51.626;7.530;2022-09-09T01:58:56;14.90;99.90
13203;DHT22;6666;51.626;7.530;2022-09-09T02:01:35;14.90;99.90
13203;DHT22;6666;51.626;7.530;2022-09-09T02:04:27;14.80;99.90
13203;DHT22;6666;51.626;7.530;2022-09-09T02:07:00;14.80;99.90
13203;DHT22;6666;51.626;7.530;2022-09-09T02:09:30;14.80;99.90
13203;DHT22;6666;51.626;7.530;2022-09-09T02:12:02;14.80;99.90
13203;DHT22;6666;51.626;7.530;2022-09-09T02:14:44;14.80;99.90
13203;DHT22;6666;51.626;7.530;2022-09-09T02:17:18;14.80;99.90
13203;DHT22;6666;51.626;7.530;2022-09-09T02:20:02;14.80;99.90
13203;DHT22;6666;51.626;7.530;2022-09-09T02:22:44;14.70;99.90
13203;DHT22;6666;51.626;7.530;2022-09-09T02:25:18;14.70;99.90
13203;DHT22;6666;51.626;7.530;2022-09-09T02:27:50;14.70;99.90
13203;DHT22;6666;51.626;7.530;2022-09-09T02:30:20;14.70;99.90
13203;DHT22;6666;51.626;7.530;2022-09-09T02:32:54;14.80;99.90
13203;DHT22;6666;51.626;7.530;2022-09-09T02:35:38;14.80;99.90
13203;DHT22;6666;51.626;7.530;2022-09-09T02:38:10;14.90;99.90
13203;DHT22;6666;51.626;7.530;2022-09-09T02:40:44;14.90;99.90
13203;DHT22;6666;51.626;7.530;2022-09-09T02:43:14;14.90;99.90
13203;DHT22;6666;51.626;7.530;2022-09-09T02:45:53;14.90;99.90
13203;DHT22;6666;51.626;7.530;2022-09-09T02:48:28;14.90;99.90
13203;DHT22;6666;51.626;7.530;2022-09-09T02:51:02;14.80;99.90
13203;DHT22;6666;51.626;7.530;2022-09-09T02:53:39;14.90;99.90
13203;DHT22;6666;51.626;7.530;2022-09-09T02:56:15;14.90;99.90
13203;DHT22;6666;51.626;7.530;2022-09-09T02:58:47;14.90;99.90
13203;DHT22;6666;51.626;7.530;2022-09-09T03:01:19;14.90;99.90
13203;DHT22;6666;51.626;7.530;2022-09-09T03:03:47;14.80;99.90
13203;DHT22;6666;51.626;7.530;2022-09-09T03:06:17;14.80;99.90
13203;DHT22;6666;51.626;7.530;2022-09-09T03:08:50;14.80;99.90
13203;DHT22;6666;51.626;7.530;2022-09-09T03:11:23;14.80;99.90
13203;DHT22;6666;51.626;7.530;2022-09-09T03:13:51;14.90;99.90
13203;DHT22;6666;51.626;7.530;2022-09-09T03:16:22;14.80;99.90
13203;DHT22;6666;51.626;7.530;2022-09-09T03:18:52;14.80;99.90
13203;DHT22;6666;51.626;7.530;2022-09-09T03:21:21;14.80;99.90
13203;DHT22;6666;51.626;7.530;2022-09-09T03:23:50;14.70;99.90
13203;DHT22;6666;51.626;7.530;2022-09-09T03:26:18;14.70;99.90
13203;DHT22;6666;51.626;7.530;2022-09-09T03:28:47;14.70;99.90
13203;DHT22;6666;51.626;7.530;2022-09-09T03:31:18;14.80;99.90
13203;DHT22;6666;51.626;7.530;2022-09-09T03:33:48;14.80;99.90
13203;DHT22;6666;51.626;7.530;2022-09-09T03:36:18;14.80;99.90
13203;DHT22;6666;51.626;7.530;2022-09-09T03:38:46;14.90;99.90
13203;DHT22;6666;51.626;7.530;2022-09-09T03:41:14;14.90;99.90
13203;DHT22;6666;51.626;7.530;2022-09-09T03:43:43;14.90;99.90
13203;DHT22;6666;51.626;7.530;2022-09-09T03:46:11;14.90;99.90
13203;DHT22;6666;51.626;7.530;2022-09-09T03:48:39;15.00;99.90
13203;DHT22;6666;51.626;7.530;2022-09-09T03:51:09;15.00;99.90
13203;DHT22;6666;51.626;7.530;2022-09-09T03:53:37;15.00;99.90
13203;DHT22;6666;51.626;7.530;2022-09-09T03:56:07;15.00;99.90
13203;DHT22;6666;51.626;7.530;2022-09-09T03:58:36;15.00;99.90
13203;DHT22;6666;51.626;7.530;2022-09-09T04:01:08;15.00;99.90
13203;DHT22;6666;51.626;7.530;2022-09-09T04:03:38;15.00;99.90
13203;DHT22;6666;51.626;7.530;2022-09-09T04:06:09;15.00;99.90
13203;DHT22;6666;51.626;7.530;2022-09-09T04:08:41;15.00;99.90
13203;DHT22;6666;51.626;7.530;2022-09-09T04:11:09;15.00;99.90
13203;DHT22;6666;51.626;7.530;2022-09-09T04:13:38;15.10;99.90
13203;DHT22;6666;51.626;7.530;2022-09-09T04:16:11;15.10;99.90
13203;DHT22;6666;51.626;7.530;2022-09-09T04:18:41;15.10;99.90
13203;DHT22;6666;51.626;7.530;2022-09-09T04:21:11;15.10;99.90
13203;DHT22;6666;51.626;7.530;2022-09-09T04:23:40;15.10;99.90
13203;DHT22;6666;51.626;7.530;2022-09-09T04:26:08;15.10;99.90
13203;DHT22;6666;51.626;7.530;2022-09-09T04:28:37;15.20;99.90
13203;DHT22;6666;51.626;7.530;2022-09-09T04:31:16;15.10;99.90
13203;DHT22;6666;51.626;7.530;2022-09-09T04:33:46;15.10;99.90
13203;DHT22;6666;51.626;7.530;2022-09-09T04:36:17;15.10;99.90
13203;DHT22;6666;51.626;7.530;2022-09-09T04:38:47;15.10;99.90
13203;DHT22;6666;51.626;7.530;2022-09-09T04:41:16;15.10;99.90
13203;DHT22;6666;51.626;7.530;2022-09-09T04:43:48;15.10;99.90
13203;DHT22;6666;51.626;7.530;2022-09-09T04:46:17;15.10;99.90
13203;DHT22;6666;51.626;7.530;2022-09-09T04:48:47;15.10;99.90
13203;DHT22;6666;51.626;7.530;2022-09-09T04:51:18;15.10;99.90
13203;DHT22;6666;51.626;7.530;2022-09-09T04:53:48;15.10;99.90
13203;DHT22;6666;51.626;7.530;2022-09-09T04:56:18;15.10;99.90
13203;DHT22;6666;51.626;7.530;2022-09-09T04:58:52;15.10;99.90
13203;DHT22;6666;51.626;7.530;2022-09-09T05:01:25;15.10;99.90
13203;DHT22;6666;51.626;7.530;2022-09-09T05:04:00;15.20;99.90
13203;DHT22;6666;51.626;7.530;2022-09-09T05:06:33;15.20;99.90
13203;DHT22;6666;51.626;7.530;2022-09-09T05:09:04;15.20;99.90
13203;DHT22;6666;51.626;7.530;2022-09-09T05:11:33;15.20;99.90
13203;DHT22;6666;51.626;7.530;2022-09-09T05:14:11;15.20;99.90
13203;DHT22;6666;51.626;7.530;2022-09-09T05:16:39;15.20;99.90
13203;DHT22;6666;51.626;7.530;2022-09-09T05:19:08;15.10;99.90
13203;DHT22;6666;51.626;7.530;2022-09-09T05:21:46;15.10;99.90
13203;DHT22;6666;51.626;7.530;2022-09-09T05:24:17;15.10;99.90
13203;DHT22;6666;51.626;7.530;2022-09-09T05:26:47;15.10;99.90
13203;DHT22;6666;51.626;7.530;2022-09-09T05:29:16;15.10;99.90
13203;DHT22;6666;51.626;7.530;2022-09-09T05:31:46;15.10;99.90
13203;DHT22;6666;51.626;7.530;2022-09-09T05:34:18;15.10;99.90
13203;DHT22;6666;51.626;7.530;2022-09-09T05:36:49;15.20;99.90
13203;DHT22;6666;51.626;7.530;2022-09-09T05:39:19;15.20;99.90
13203;DHT22;6666;51.626;7.530;2022-09-09T05:41:48;15.20;99.90
13203;DHT22;6666;51.626;7.530;2022-09-09T05:44:16;15.30;99.90
13203;DHT22;6666;51.626;7.530;2022-09-09T05:46:46;15.40;99.90
13203;DHT22;6666;51.626;7.530;2022-09-09T05:49:14;15.40;99.90
13203;DHT22;6666;51.626;7.530;2022-09-09T05:51:43;15.40;99.90
13203;DHT22;6666;51.626;7.530;2022-09-09T05:54:15;15.40;99.90
13203;DHT22;6666;51.626;7.530;2022-09-09T05:56:47;15.40;99.90
13203;DHT22;6666;51.626;7.530;2022-09-09T05:59:18;15.50;99.90
13203;DHT22;6666;51.626;7.530;2022-09-09T06:01:46;15.50;99.90
13203;DHT22;6666;51.626;7.530;2022-09-09T06:04:30;15.40;99.90
13203;DHT22;6666;51.626;7.530;2022-09-09T06:07:00;15.40;99.90
13203;DHT22;6666;51.626;7.530;2022-09-09T06:09:31;15.50;99.90
13203;DHT22;6666;51.626;7.530;2022-09-09T06:11:59;15.50;99.90
13203;DHT22;6666;51.626;7.530;2022-09-09T06:14:30;15.50;99.90
13203;DHT22;6666;51.626;7.530;2022-09-09T06:17:00;15.50;99.90
13203;DHT22;6666;51.626;7.530;2022-09-09T06:19:30;15.50;99.90
13203;DHT22;6666;51.626;7.530;2022-09-09T06:21:59;15.60;99.90
13203;DHT22;6666;51.626;7.530;2022-09-09T06:24:31;15.80;99.90
13203;DHT22;6666;51.626;7.530;2022-09-09T06:27:01;15.90;99.90
13203;DHT22;6666;51.626;7.530;2022-09-09T06:29:33;15.90;99.90
13203;DHT22;6666;51.626;7.530;2022-09-09T06:32:02;16.00;99.90
13203;DHT22;6666;51.626;7.530;2022-09-09T06:34:30;16.10;99.90
13203;DHT22;6666;51.626;7.530;2022-09-09T06:37:00;16.20;99.90
13203;DHT22;6666;51.626;7.530;2022-09-09T06:39:38;16.20;99.90
13203;DHT22;6666;51.626;7.530;2022-09-09T06:42:06;16.20;99.90
13203;DHT22;6666;51.626;7.530;2022-09-09T06:45:06;16.30;99.90
13203;DHT22;6666;51.626;7.530;2022-09-09T06:47:45;16.40;99.90
13203;DHT22;6666;51.626;7.530;2022-09-09T06:50:14;16.40;99.90
13203;DHT22;6666;51.626;7.530;2022-09-09T06:52:46;16.40;99.90
13203;DHT22;6666;51.626;7.530;2022-09-09T06:55:16;16.50;99.90
13203;DHT22;6666;51.626;7.530;2022-09-09T06:57:45;16.50;99.90
13203;DHT22;6666;51.626;7.530;2022-09-09T07:00:20;16.60;99.90
13203;DHT22;6666;51.626;7.530;2022-09-09T07:02:51;16.60;99.90
13203;DHT22;6666;51.626;7.530;2022-09-09T07:05:19;16.70;99.90
13203;DHT22;6666;51.626;7.530;2022-09-09T07:07:48;16.70;99.90
13203;DHT22;6666;51.626;7.530;2022-09-09T07:10:20;16.80;99.90
13203;DHT22;6666;51.626;7.530;2022-09-09T07:12:50;16.90;99.90
13203;DHT22;6666;51.626;7.530;2022-09-09T07:15:20;17.00;99.90
13203;DHT22;6666;51.626;7.530;2022-09-09T07:17:49;17.10;99.90
13203;DHT22;6666;51.626;7.530;2022-09-09T07:20:20;17.10;99.90
13203;DHT22;6666;51.626;7.530;2022-09-09T07:22:50;17.30;99.90
13203;DHT22;6666;51.626;7.530;2022-09-09T07:25:20;17.20;99.90
13203;DHT22;6666;51.626;7.530;2022-09-09T07:27:48;17.30;99.90
13203;DHT22;6666;51.626;7.530;2022-09-09T07:30:17;17.20;99.90
13203;DHT22;6666;51.626;7.530;2022-09-09T07:32:54;17.30;99.90
13203;DHT22;6666;51.626;7.530;2022-09-09T07:35:24;17.30;99.90
13203;DHT22;6666;51.626;7.530;2022-09-09T07:37:53;17.40;99.90
13203;DHT22;6666;51.626;7.530;2022-09-09T07:40:24;17.40;99.90
13203;DHT22;6666;51.626;7.530;2022-09-09T07:42:52;17.50;99.90
13203;DHT22;6666;51.626;7.530;2022-09-09T07:45:21;17.60;99.90
13203;DHT22;6666;51.626;7.530;2022-09-09T07:47:49;17.70;99.90
13203;DHT22;6666;51.626;7.530;2022-09-09T07:50:18;17.80;99.90
13203;DHT22;6666;51.626;7.530;2022-09-09T07:52:46;17.80;99.90
13203;DHT22;6666;51.626;7.530;2022-09-09T07:55:15;17.70;99.90
13203;DHT22;6666;51.626;7.530;2022-09-09T07:57:44;17.80;99.90
13203;DHT22;6666;51.626;7.530;2022-09-09T08:00:15;17.90;99.90
13203;DHT22;6666;51.626;7.530;2022-09-09T08:02:49;18.00;99.90
13203;DHT22;6666;51.626;7.530;2022-09-09T08:05:17;18.20;99.90
13203;DHT22;6666;51.626;7.530;2022-09-09T08:07:45;18.20;99.90
13203;DHT22;6666;51.626;7.530;2022-09-09T08:10:14;18.20;99.90
13203;DHT22;6666;51.626;7.530;2022-09-09T08:12:46;18.30;99.90
13203;DHT22;6666;51.626;7.530;2022-09-09T08:15:34;18.40;99.90
13203;DHT22;6666;51.626;7.530;2022-09-09T08:18:03;18.50;99.90
13203;DHT22;6666;51.626;7.530;2022-09-09T08:20:35;18.40;99.90
13203;DHT22;6666;51.626;7.530;2022-09-09T08:23:03;18.50;99.90
13203;DHT22;6666;51.626;7.530;2022-09-09T08:25:31;18.60;99.90
13203;DHT22;6666;51.626;7.530;2022-09-09T08:28:02;18.70;99.90
13203;DHT22;6666;51.626;7.530;2022-09-09T08:30:31;18.70;99.90
13203;DHT22;6666;51.626;7.530;2022-09-09T08:32:59;18.80;99.90
13203;DHT22;6666;51.626;7.530;2022-09-09T08:35:27;18.80;99.90
13203;DHT22;6666;51.626;7.530;2022-09-09T08:38:00;19.00;99.90
13203;DHT22;6666;51.626;7.530;2022-09-09T08:40:38;19.10;99.90
13203;DHT22;6666;51.626;7.530;2022-09-09T08:43:09;19.20;99.90
13203;DHT22;6666;51.626;7.530;2022-09-09T08:45:49;19.30;99.90
13203;DHT22;6666;51.626;7.530;2022-09-09T08:48:32;19.30;99.90
13203;DHT22;6666;51.626;7.530;2022-09-09T08:51:08;19.40;99.90
13203;DHT22;6666;51.626;7.530;2022-09-09T08:53:42;19.50;99.90
13203;DHT22;6666;51.626;7.530;2022-09-09T08:56:14;19.50;99.90
13203;DHT22;6666;51.626;7.530;2022-09-09T08:58:50;19.50;99.90
13203;DHT22;6666;51.626;7.530;2022-09-09T09:01:38;19.70;99.90
13203;DHT22;6666;51.626;7.530;2022-09-09T09:04:27;19.80;99.90
13203;DHT22;6666;51.626;7.530;2022-09-09T09:07:06;19.80;99.90
13203;DHT22;6666;51.626;7.530;2022-09-09T09:09:42;19.70;99.90
13203;DHT22;6666;51.626;7.530;2022-09-09T09:12:16;19.80;99.90
13203;DHT22;6666;51.626;7.530;2022-09-09T09:14:48;19.80;99.90
13203;DHT22;6666;51.626;7.530;2022-09-09T09:17:20;19.80;99.90
13203;DHT22;6666;51.626;7.530;2022-09-09T09:19:50;19.80;99.90
13203;DHT22;6666;51.626;7.530;2022-09-09T09:22:20;19.70;99.90
13203;DHT22;6666;51.626;7.530;2022-09-09T09:24:55;19.60;99.90
13203;DHT22;6666;51.626;7.530;2022-09-09T09:27:32;19.90;99.90
13203;DHT22;6666;51.626;7.530;2022-09-09T09:30:13;20.00;99.90
13203;DHT22;6666;51.626;7.530;2022-09-09T09:33:06;20.00;99.90
13203;DHT22;6666;51.626;7.530;2022-09-09T09:35:38;20.10;99.90
13203;DHT22;6666;51.626;7.530;2022-09-09T09:38:17;20.30;99.90
13203;DHT22;6666;51.626;7.530;2022-09-09T09:41:07;20.20;99.90
13203;DHT22;6666;51.626;7.530;2022-09-09T09:43:37;20.30;99.90
13203;DHT22;6666;51.626;7.530;2022-09-09T09:46:21;20.30;99.90
13203;DHT22;6666;51.626;7.530;2022-09-09T09:48:58;20.30;99.90
13203;DHT22;6666;51.626;7.530;2022-09-09T09:51:30;20.50;99.90
13203;DHT22;6666;51.626;7.530;2022-09-09T09:54:13;20.40;99.90
13203;DHT22;6666;51.626;7.530;2022-09-09T09:56:47;20.50;99.90
13203;DHT22;6666;51.626;7.530;2022-09-09T09:59:21;20.40;99.90
13203;DHT22;6666;51.626;7.530;2022-09-09T10:02:14;20.30;99.90
13203;DHT22;6666;51.626;7.530;2022-09-09T10:04:45;20.20;99.90
13203;DHT22;6666;51.626;7.530;2022-09-09T10:07:19;20.20;99.90
13203;DHT22;6666;51.626;7.530;2022-09-09T10:09:52;20.10;99.90
13203;DHT22;6666;51.626;7.530;2022-09-09T10:12:30;20.00;99.90
13203;DHT22;6666;51.626;7.530;2022-09-09T10:15:05;20.10;99.90
13203;DHT22;6666;51.626;7.530;2022-09-09T10:17:41;20.40;99.90
13203;DHT22;6666;51.626;7.530;2022-09-09T10:20:21;20.50;99.90
13203;DHT22;6666;51.626;7.530;2022-09-09T10:22:52;20.50;99.90
13203;DHT22;6666;51.626;7.530;2022-09-09T10:25:38;20.50;99.90
13203;DHT22;6666;51.626;7.530;2022-09-09T10:28:37;20.40;99.90
13203;DHT22;6666;51.626;7.530;2022-09-09T10:31:16;20.50;99.90
13203;DHT22;6666;51.626;7.530;2022-09-09T10:33:51;20.40;99.90
13203;DHT22;6666;51.626;7.530;2022-09-09T10:36:21;20.40;99.90
13203;DHT22;6666;51.626;7.530;2022-09-09T10:38:56;20.40;99.90
13203;DHT22;6666;51.626;7.530;2022-09-09T10:41:40;20.50;99.90
13203;DHT22;6666;51.626;7.530;2022-09-09T10:44:28;20.90;99.90
13203;DHT22;6666;51.626;7.530;2022-09-09T10:47:20;21.20;99.90
13203;DHT22;6666;51.626;7.530;2022-09-09T10:50:18;21.30;99.90
13203;DHT22;6666;51.626;7.530;2022-09-09T10:53:21;21.20;99.90
13203;DHT22;6666;51.626;7.530;2022-09-09T10:55:55;20.90;99.90
13203;DHT22;6666;51.626;7.530;2022-09-09T10:58:28;20.90;99.90
13203;DHT22;6666;51.626;7.530;2022-09-09T11:01:03;20.90;99.90
13203;DHT22;6666;51.626;7.530;2022-09-09T11:03:36;21.00;99.90
13203;DHT22;6666;51.626;7.530;2022-09-09T11:06:12;20.90;99.90
13203;DHT22;6666;51.626;7.530;2022-09-09T11:08:42;21.00;99.90
13203;DHT22;6666;51.626;7.530;2022-09-09T11:11:13;20.90;99.90
13203;DHT22;6666;51.626;7.530;2022-09-09T11:13:48;20.90;99.90
13203;DHT22;6666;51.626;7.530;2022-09-09T11:16:24;20.90;99.90
13203;DHT22;6666;51.626;7.530;2022-09-09T11:18:57;21.10;99.90
13203;DHT22;6666;51.626;7.530;2022-09-09T11:21:29;21.20;99.90
13203;DHT22;6666;51.626;7.530;2022-09-09T11:24:02;21.20;99.90
13203;DHT22;6666;51.626;7.530;2022-09-09T11:26:36;21.40;99.90
13203;DHT22;6666;51.626;7.530;2022-09-09T11:32:34;21.60;99.90
13203;DHT22;6666;51.626;7.530;2022-09-09T11:35:22;21.60;99.90
13203;DHT22;6666;51.626;7.530;2022-09-09T11:38:16;21.80;99.90
13203;DHT22;6666;51.626;7.530;2022-09-09T11:40:46;21.70;99.90
13203;DHT22;6666;51.626;7.530;2022-09-09T11:43:17;21.60;99.90
13203;DHT22;6666;51.626;7.530;2022-09-09T11:45:51;21.80;99.90
13203;DHT22;6666;51.626;7.530;2022-09-09T11:48:32;22.10;99.90
13203;DHT22;6666;51.626;7.530;2022-09-09T11:51:07;22.10;99.90
13203;DHT22;6666;51.626;7.530;2022-09-09T11:53:51;22.20;99.90
13203;DHT22;6666;51.626;7.530;2022-09-09T11:56:28;22.00;99.90
13203;DHT22;6666;51.626;7.530;2022-09-09T11:59:00;21.80;99.90
13203;DHT22;6666;51.626;7.530;2022-09-09T12:01:41;21.70;99.90
13203;DHT22;6666;51.626;7.530;2022-09-09T12:04:27;21.80;99.90
13203;DHT22;6666;51.626;7.530;2022-09-09T12:06:59;22.00;99.90
13203;DHT22;6666;51.626;7.530;2022-09-09T12:09:45;21.90;99.90
13203;DHT22;6666;51.626;7.530;2022-09-09T12:12:30;21.80;99.90
13203;DHT22;6666;51.626;7.530;2022-09-09T12:15:02;21.70;99.90
13203;DHT22;6666;51.626;7.530;2022-09-09T12:17:36;21.90;99.90
13203;DHT22;6666;51.626;7.530;2022-09-09T12:20:13;21.80;99.90
13203;DHT22;6666;51.626;7.530;2022-09-09T12:23:03;21.50;99.90
13203;DHT22;6666;51.626;7.530;2022-09-09T12:25:48;21.40;99.90
13203;DHT22;6666;51.626;7.530;2022-09-09T12:28:20;21.30;99.90
13203;DHT22;6666;51.626;7.530;2022-09-09T12:30:56;21.20;99.90
13203;DHT22;6666;51.626;7.530;2022-09-09T12:33:33;21.10;99.90
13203;DHT22;6666;51.626;7.530;2022-09-09T12:36:04;21.00;99.90
13203;DHT22;6666;51.626;7.530;2022-09-09T12:38:36;21.00;99.90
13203;DHT22;6666;51.626;7.530;2022-09-09T12:41:15;21.00;99.90
13203;DHT22;6666;51.626;7.530;2022-09-09T12:43:46;20.90;99.90
13203;DHT22;6666;51.626;7.530;2022-09-09T12:46:22;20.80;99.90
13203;DHT22;6666;51.626;7.530;2022-09-09T12:48:53;20.60;99.90
13203;DHT22;6666;51.626;7.530;2022-09-09T12:51:26;20.60;99.90
13203;DHT22;6666;51.626;7.530;2022-09-09T12:53:56;20.70;99.90
13203;DHT22;6666;51.626;7.530;2022-09-09T12:56:28;20.80;99.90
13203;DHT22;6666;51.626;7.530;2022-09-09T12:58:58;20.80;99.90
13203;DHT22;6666;51.626;7.530;2022-09-09T13:01:29;20.60;99.90
13203;DHT22;6666;51.626;7.530;2022-09-09T13:03:58;20.60;99.90
13203;DHT22;6666;51.626;7.530;2022-09-09T13:06:28;20.60;99.90
13203;DHT22;6666;51.626;7.530;2022-09-09T13:08:58;20.80;99.90
13203;DHT22;6666;51.626;7.530;2022-09-09T13:11:30;20.90;99.90
13203;DHT22;6666;51.626;7.530;2022-09-09T13:13:59;21.00;99.90
13203;DHT22;6666;51.626;7.530;2022-09-09T13:16:30;20.90;99.90
13203;DHT22;6666;51.626;7.530;2022-09-09T13:19:02;20.80;99.90
13203;DHT22;6666;51.626;7.530;2022-09-09T13:21:36;20.70;99.90
13203;DHT22;6666;51.626;7.530;2022-09-09T13:24:06;20.50;99.90
13203;DHT22;6666;51.626;7.530;2022-09-09T13:26:38;20.40;99.90
13203;DHT22;6666;51.626;7.530;2022-09-09T13:29:16;20.30;99.90
13203;DHT22;6666;51.626;7.530;2022-09-09T13:31:45;20.30;99.90
13203;DHT22;6666;51.626;7.530;2022-09-09T13:34:24;20.30;99.90
13203;DHT22;6666;51.626;7.530;2022-09-09T13:36:58;20.40;99.90
13203;DHT22;6666;51.626;7.530;2022-09-09T13:39:28;20.50;99.90
13203;DHT22;6666;51.626;7.530;2022-09-09T13:41:58;20.50;99.90
13203;DHT22;6666;51.626;7.530;2022-09-09T13:44:28;20.80;99.90
13203;DHT22;6666;51.626;7.530;2022-09-09T13:47:02;21.00;99.90
13203;DHT22;6666;51.626;7.530;2022-09-09T13:49:36;21.20;99.90
13203;DHT22;6666;51.626;7.530;2022-09-09T13:52:08;21.00;99.90
13203;DHT22;6666;51.626;7.530;2022-09-09T13:54:37;20.70;99.90
13203;DHT22;6666;51.626;7.530;2022-09-09T13:57:15;20.60;99.90
13203;DHT22;6666;51.626;7.530;2022-09-09T13:59:44;20.50;99.90
13203;DHT22;6666;51.626;7.530;2022-09-09T14:02:31;20.40;99.90
13203;DHT22;6666;51.626;7.530;2022-09-09T14:04:59;20.40;99.90
13203;DHT22;6666;51.626;7.530;2022-09-09T14:07:27;20.30;99.90
13203;DHT22;6666;51.626;7.530;2022-09-09T14:09:55;20.30;99.90
13203;DHT22;6666;51.626;7.530;2022-09-09T14:12:25;20.40;99.90
13203;DHT22;6666;51.626;7.530;2022-09-09T14:14:53;20.40;99.90
13203;DHT22;6666;51.626;7.530;2022-09-09T14:17:21;20.30;99.90
13203;DHT22;6666;51.626;7.530;2022-09-09T14:19:51;20.30;99.90
13203;DHT22;6666;51.626;7.530;2022-09-09T14:22:20;20.40;99.90
13203;DHT22;6666;51.626;7.530;2022-09-09T14:24:48;20.40;99.90
13203;DHT22;6666;51.626;7.530;2022-09-09T14:27:17;20.40;99.90
13203;DHT22;6666;51.626;7.530;2022-09-09T14:29:47;20.20;99.90
13203;DHT22;6666;51.626;7.530;2022-09-09T14:32:16;20.00;99.90
13203;DHT22;6666;51.626;7.530;2022-09-09T14:34:44;19.70;99.90
13203;DHT22;6666;51.626;7.530;2022-09-09T14:37:12;19.50;99.90
13203;DHT22;6666;51.626;7.530;2022-09-09T14:39:40;19.20;99.90
13203;DHT22;6666;51.626;7.530;2022-09-09T14:42:10;19.20;99.90
13203;DHT22;6666;51.626;7.530;2022-09-09T14:44:39;19.00;99.90
13203;DHT22;6666;51.626;7.530;2022-09-09T14:47:08;19.10;99.90
13203;DHT22;6666;51.626;7.530;2022-09-09T14:49:37;19.20;99.90
13203;DHT22;6666;51.626;7.530;2022-09-09T14:52:09;19.30;99.90
13203;DHT22;6666;51.626;7.530;2022-09-09T14:54:38;19.40;99.90
13203;DHT22;6666;51.626;7.530;2022-09-09T14:57:06;19.70;99.90
13203;DHT22;6666;51.626;7.530;2022-09-09T14:59:34;20.00;99.90
13203;DHT22;6666;51.626;7.530;2022-09-09T15:02:02;20.20;99.90
13203;DHT22;6666;51.626;7.530;2022-09-09T15:04:32;20.20;99.90
13203;DHT22;6666;51.626;7.530;2022-09-09T15:07:01;20.30;99.90
13203;DHT22;6666;51.626;7.530;2022-09-09T15:09:29;20.20;99.90
13203;DHT22;6666;51.626;7.530;2022-09-09T15:11:57;20.30;99.90
13203;DHT22;6666;51.626;7.530;2022-09-09T15:14:26;20.30;99.90
13203;DHT22;6666;51.626;7.530;2022-09-09T15:16:54;20.40;99.90
13203;DHT22;6666;51.626;7.530;2022-09-09T15:19:22;20.40;99.90
13203;DHT22;6666;51.626;7.530;2022-09-09T15:21:52;20.30;99.90
13203;DHT22;6666;51.626;7.530;2022-09-09T15:24:21;20.30;99.90
13203;DHT22;6666;51.626;7.530;2022-09-09T15:26:49;20.10;99.90
13203;DHT22;6666;51.626;7.530;2022-09-09T15:29:17;20.00;99.90
13203;DHT22;6666;51.626;7.530;2022-09-09T15:31:45;19.90;99.90
13203;DHT22;6666;51.626;7.530;2022-09-09T15:34:14;19.70;99.90
13203;DHT22;6666;51.626;7.530;2022-09-09T15:36:44;19.70;99.90
13203;DHT22;6666;51.626;7.530;2022-09-09T15:39:16;19.50;99.90
13203;DHT22;6666;51.626;7.530;2022-09-09T15:41:44;19.40;99.90
13203;DHT22;6666;51.626;7.530;2022-09-09T15:44:14;19.30;99.90
13203;DHT22;6666;51.626;7.530;2022-09-09T15:46:44;19.20;99.90
13203;DHT22;6666;51.626;7.530;2022-09-09T15:49:13;19.20;99.90
13203;DHT22;6666;51.626;7.530;2022-09-09T15:51:43;19.10;99.90
13203;DHT22;6666;51.626;7.530;2022-09-09T15:54:15;18.90;99.90
13203;DHT22;6666;51.626;7.530;2022-09-09T15:56:45;18.80;99.90
13203;DHT22;6666;51.626;7.530;2022-09-09T15:59:16;18.50;99.90
13203;DHT22;6666;51.626;7.530;2022-09-09T16:01:44;18.00;99.90
13203;DHT22;6666;51.626;7.530;2022-09-09T16:04:12;17.30;99.90
13203;DHT22;6666;51.626;7.530;2022-09-09T16:06:42;17.00;99.90
13203;DHT22;6666;51.626;7.530;2022-09-09T16:09:11;16.80;99.90
13203;DHT22;6666;51.626;7.530;2022-09-09T16:11:40;16.70;99.90
13203;DHT22;6666;51.626;7.530;2022-09-09T16:14:08;16.70;99.90
13203;DHT22;6666;51.626;7.530;2022-09-09T16:16:37;16.80;99.90
13203;DHT22;6666;51.626;7.530;2022-09-09T16:19:07;16.80;99.90
13203;DHT22;6666;51.626;7.530;2022-09-09T16:21:38;16.80;99.90
13203;DHT22;6666;51.626;7.530;2022-09-09T16:24:10;16.90;99.90
13203;DHT22;6666;51.626;7.530;2022-09-09T16:26:41;16.80;99.90